sensor_id;sensor_type;location;lat;lon;timestamp;temperature;humidity
31207;DHT22;17834;52.992;8.856;2023-09-19T17:38:32;19.00;99.90
31207;DHT22;17834;52.992;8.856;2023-09-19T17:41:01;18.70;99.90
31207;DHT22;17834;52.992;8.856;2023-09-19T17:43:28;18.40;99.90
31207;DHT22;17834;52.992;8.856;2023-09-19T17:45:54;18.40;99.90
31207;DHT22;17834;52.992;8.856;2023-09-19T17:48:19;18.40;99.90
31207;DHT22;17834;52.992;8.856;2023-09-19T17:50:45;18.40;99.90
31207;DHT22;17834;52.992;8.856;2023-09-19T17:53:10;18.40;99.90
31207;DHT22;17834;52.992;8.856;2023-09-19T17:55:37;18.40;99.90
31207;DHT22;17834;52.992;8.856;2023-09-19T17:58:03;18.40;99.90
31207;DHT22;17834;52.992;8.856;2023-09-19T18:00:29;18.40;99.90
31207;DHT22;17834;52.992;8.856;2023-09-19T18:02:54;18.40;99.90
31207;DHT22;17834;52.992;8.856;2023-09-19T18:05:20;18.40;99.90
31207;DHT22;17834;52.992;8.856;2023-09-19T18:07:46;18.40;99.90
31207;DHT22;17834;52.992;8.856;2023-09-19T18:10:13;18.40;99.90
31207;DHT22;17834;52.992;8.856;2023-09-19T18:12:40;18.40;99.90
31207;DHT22;17834;52.992;8.856;2023-09-19T18:15:06;18.40;99.90
31207;DHT22;17834;52.992;8.856;2023-09-19T18:17:33;18.40;99.90
31207;DHT22;17834;52.992;8.856;2023-09-19T18:20:01;18.30;99.90
31207;DHT22;17834;52.992;8.856;2023-09-19T18:22:26;18.40;99.90
31207;DHT22;17834;52.992;8.856;2023-09-19T18:24:54;18.30;99.90
31207;DHT22;17834;52.992;8.856;2023-09-19T18:27:19;18.30;99.90
31207;DHT22;17834;52.992;8.856;2023-09-19T18:29:45;18.30;99.90
31207;DHT22;17834;52.992;8.856;2023-09-19T18:32:12;18.30;99.90
31207;DHT22;17834;52.992;8.856;2023-09-19T18:34:37;18.30;99.90
31207;DHT22;17834;52.992;8.856;2023-09-19T18:37:04;18.30;99.90
31207;DHT22;17834;52.992;8.856;2023-09-19T18:39:29;18.30;99.90
31207;DHT22;17834;52.992;8.856;2023-09-19T18:41:55;18.30;99.90
31207;DHT22;17834;52.992;8.856;2023-09-19T18:44:21;18.30;99.90
31207;DHT22;17834;52.992;8.856;2023-09-19T18:46:47;18.30;99.90
31207;DHT22;17834;52.992;8.856;2023-09-19T18:49:13;18.30;99.90
31207;DHT22;17834;52.992;8.856;2023-09-19T18:51:39;18.30;99.90
31207;DHT22;17834;52.992;8.856;2023-09-19T18:54:06;18.30;99.90
31207;DHT22;17834;52.992;8.856;2023-09-19T18:56:31;18.30;99.90
31207;DHT22;17834;52.992;8.856;2023-09-19T18:58:57;18.20;99.90
31207;DHT22;17834;52.992;8.856;2023-09-19T19:01:22;18.20;99.90
31207;DHT22;17834;52.992;8.856;2023-09-19T19:03:51;18.20;99.90
31207;DHT22;17834;52.992;8.856;2023-09-19T19:06:17;18.20;99.90
31207;DHT22;17834;52.992;8.856;2023-09-19T19:08:44;18.10;99.90
31207;DHT22;17834;52.992;8.856;2023-09-19T19:11:12;18.10;99.90
31207;DHT22;17834;52.992;8.856;2023-09-19T19:13:40;18.10;99.90
31207;DHT22;17834;52.992;8.856;2023-09-19T19:16:05;18.10;99.90
31207;DHT22;17834;52.992;8.856;2023-09-19T19:18:38;18.10;99.90
31207;DHT22;17834;52.992;8.856;2023-09-19T19:21:05;18.10;99.90
31207;DHT22;17834;52.992;8.856;2023-09-19T19:23:32;18.10;99.90
31207;DHT22;17834;52.992;8.856;2023-09-19T19:26:01;18.00;99.90
31207;DHT22;17834;52.992;8.856;2023-09-19T19:28:29;18.10;99.90
31207;DHT22;17834;52.992;8.856;2023-09-19T19:30:55;18.00;99.90
31207;DHT22;17834;52.992;8.856;2023-09-19T19:33:20;18.10;99.90
31207;DHT22;17834;52.992;8.856;2023-09-19T19:35:47;18.10;99.90
31207;DHT22;17834;52.992;8.856;2023-09-19T19:38:13;18.00;99.90
31207;DHT22;17834;52.992;8.856;2023-09-19T19:40:41;18.00;99.90
31207;DHT22;17834;52.992;8.856;2023-09-19T19:43:06;18.00;99.90
31207;DHT22;17834;52.992;8.856;2023-09-19T19:45:32;18.00;99.90
31207;DHT22;17834;52.992;8.856;2023-09-19T19:47:57;18.00;99.90
31207;DHT22;17834;52.992;8.856;2023-09-19T19:50:23;17.90;99.90
31207;DHT22;17834;52.992;8.856;2023-09-19T19:52:51;17.90;99.90
31207;DHT22;17834;52.992;8.856;2023-09-19T19:55:18;17.90;99.90
31207;DHT22;17834;52.992;8.856;2023-09-19T19:57:48;17.90;99.90
31207;DHT22;17834;52.992;8.856;2023-09-19T20:00:14;17.90;99.90
31207;DHT22;17834;52.992;8.856;2023-09-19T20:02:45;17.90;99.90
31207;DHT22;17834;52.992;8.856;2023-09-19T20:05:11;18.00;99.90
31207;DHT22;17834;52.992;8.856;2023-09-19T20:07:37;17.90;99.90
31207;DHT22;17834;52.992;8.856;2023-09-19T20:10:04;17.90;99.90
31207;DHT22;17834;52.992;8.856;2023-09-19T20:12:30;18.00;99.90
31207;DHT22;17834;52.992;8.856;2023-09-19T20:14:55;18.00;99.90
31207;DHT22;17834;52.992;8.856;2023-09-19T20:17:21;18.00;99.90
31207;DHT22;17834;52.992;8.856;2023-09-19T20:19:49;18.00;99.90
31207;DHT22;17834;52.992;8.856;2023-09-19T20:22:18;18.00;99.90
31207;DHT22;17834;52.992;8.856;2023-09-19T20:24:44;18.00;99.90
31207;DHT22;17834;52.992;8.856;2023-09-19T20:27:11;18.00;99.90
31207;DHT22;17834;52.992;8.856;2023-09-19T20:29:38;17.90;99.90
31207;DHT22;17834;52.992;8.856;2023-09-19T20:32:05;18.00;99.90
31207;DHT22;17834;52.992;8.856;2023-09-19T20:34:30;18.00;99.90
31207;DHT22;17834;52.992;8.856;2023-09-19T20:36:56;18.00;99.90
31207;DHT22;17834;52.992;8.856;2023-09-19T20:39:21;18.00;99.90
31207;DHT22;17834;52.992;8.856;2023-09-19T20:41:49;18.00;99.90
31207;DHT22;17834;52.992;8.856;2023-09-19T20:44:15;18.00;99.90
31207;DHT22;17834;52.992;8.856;2023-09-19T20:46:40;18.00;99.90
31207;DHT22;17834;52.992;8.856;2023-09-19T20:49:08;17.90;99.90
31207;DHT22;17834;52.992;8.856;2023-09-19T20:51:33;18.00;99.90
31207;DHT22;17834;52.992;8.856;2023-09-19T20:54:00;17.90;99.90
31207;DHT22;17834;52.992;8.856;2023-09-19T20:56:26;17.90;99.90
31207;DHT22;17834;52.992;8.856;2023-09-19T20:58:52;17.80;99.90
31207;DHT22;17834;52.992;8.856;2023-09-19T21:01:17;17.80;99.90
31207;DHT22;17834;52.992;8.856;2023-09-19T21:03:44;17.80;99.90
31207;DHT22;17834;52.992;8.856;2023-09-19T21:06:10;17.80;99.90
31207;DHT22;17834;52.992;8.856;2023-09-19T21:08:36;17.70;99.90
31207;DHT22;17834;52.992;8.856;2023-09-19T21:11:13;17.70;99.90
31207;DHT22;17834;52.992;8.856;2023-09-19T21:13:39;17.80;99.90
31207;DHT22;17834;52.992;8.856;2023-09-19T21:16:09;17.70;99.90
31207;DHT22;17834;52.992;8.856;2023-09-19T21:18:40;17.70;99.90
31207;DHT22;17834;52.992;8.856;2023-09-19T21:21:06;17.70;99.90
31207;DHT22;17834;52.992;8.856;2023-09-19T21:23:39;17.80;99.90
31207;DHT22;17834;52.992;8.856;2023-09-19T21:26:05;17.80;99.90
31207;DHT22;17834;52.992;8.856;2023-09-19T21:28:32;17.80;99.90
31207;DHT22;17834;52.992;8.856;2023-09-19T21:31:02;17.80;99.90
31207;DHT22;17834;52.992;8.856;2023-09-19T21:33:36;17.80;99.90
31207;DHT22;17834;52.992;8.856;2023-09-19T21:36:03;17.80;99.90
31207;DHT22;17834;52.992;8.856;2023-09-19T21:38:29;17.70;99.90
31207;DHT22;17834;52.992;8.856;2023-09-19T21:40:54;17.70;99.90
31207;DHT22;17834;52.992;8.856;2023-09-19T21:43:20;17.70;99.90
31207;DHT22;17834;52.992;8.856;2023-09-19T21:45:45;17.70;99.90
31207;DHT22;17834;52.992;8.856;2023-09-19T21:48:11;17.70;99.90
31207;DHT22;17834;52.992;8.856;2023-09-19T21:50:37;17.70;99.90
31207;DHT22;17834;52.992;8.856;2023-09-19T21:53:03;17.70;99.90
31207;DHT22;17834;52.992;8.856;2023-09-19T21:55:30;17.80;99.90
31207;DHT22;17834;52.992;8.856;2023-09-19T21:57:56;17.80;99.90
31207;DHT22;17834;52.992;8.856;2023-09-19T22:00:23;17.80;99.90
31207;DHT22;17834;52.992;8.856;2023-09-19T22:02:55;17.80;99.90
31207;DHT22;17834;52.992;8.856;2023-09-19T22:05:23;17.80;99.90
31207;DHT22;17834;52.992;8.856;2023-09-19T22:07:49;17.80;99.90
31207;DHT22;17834;52.992;8.856;2023-09-19T22:10:16;17.80;99.90
31207;DHT22;17834;52.992;8.856;2023-09-19T22:12:42;17.80;99.90
31207;DHT22;17834;52.992;8.856;2023-09-19T22:15:09;17.80;99.90
31207;DHT22;17834;52.992;8.856;2023-09-19T22:17:38;17.80;99.90
31207;DHT22;17834;52.992;8.856;2023-09-19T22:20:07;17.80;99.90
31207;DHT22;17834;52.992;8.856;2023-09-19T22:22:54;17.80;99.90
31207;DHT22;17834;52.992;8.856;2023-09-19T22:25:24;17.80;99.90
31207;DHT22;17834;52.992;8.856;2023-09-19T22:27:56;17.70;99.90
31207;DHT22;17834;52.992;8.856;2023-09-19T22:30:21;17.80;99.90
31207;DHT22;17834;52.992;8.856;2023-09-19T22:32:47;17.80;99.90
31207;DHT22;17834;52.992;8.856;2023-09-19T22:35:13;17.80;99.90
31207;DHT22;17834;52.992;8.856;2023-09-19T22:37:41;17.80;99.90
31207;DHT22;17834;52.992;8.856;2023-09-19T22:40:09;17.80;99.90
31207;DHT22;17834;52.992;8.856;2023-09-19T22:42:50;17.80;99.90
31207;DHT22;17834;52.992;8.856;2023-09-19T22:45:16;17.80;99.90
31207;DHT22;17834;52.992;8.856;2023-09-19T22:47:41;17.80;99.90
31207;DHT22;17834;52.992;8.856;2023-09-19T22:50:09;17.80;99.90
31207;DHT22;17834;52.992;8.856;2023-09-19T22:52:35;17.70;99.90
31207;DHT22;17834;52.992;8.856;2023-09-19T22:55:02;17.80;99.90
31207;DHT22;17834;52.992;8.856;2023-09-19T22:57:31;17.80;99.90
31207;DHT22;17834;52.992;8.856;2023-09-19T22:59:58;17.70;99.90
31207;DHT22;17834;52.992;8.856;2023-09-19T23:02:24;17.70;99.90
31207;DHT22;17834;52.992;8.856;2023-09-19T23:04:54;17.70;99.90
31207;DHT22;17834;52.992;8.856;2023-09-19T23:07:26;17.70;99.90
31207;DHT22;17834;52.992;8.856;2023-09-19T23:09:51;17.70;99.90
31207;DHT22;17834;52.992;8.856;2023-09-19T23:12:18;17.70;99.90
31207;DHT22;17834;52.992;8.856;2023-09-19T23:14:45;17.70;99.90
31207;DHT22;17834;52.992;8.856;2023-09-19T23:17:11;17.70;99.90
31207;DHT22;17834;52.992;8.856;2023-09-19T23:19:46;17.70;99.90
31207;DHT22;17834;52.992;8.856;2023-09-19T23:22:18;17.70;99.90
31207;DHT22;17834;52.992;8.856;2023-09-19T23:24:44;17.60;99.90
31207;DHT22;17834;52.992;8.856;2023-09-19T23:27:14;17.60;99.90
31207;DHT22;17834;52.992;8.856;2023-09-19T23:29:49;17.60;99.90
31207;DHT22;17834;52.992;8.856;2023-09-19T23:32:15;17.60;99.90
31207;DHT22;17834;52.992;8.856;2023-09-19T23:34:41;17.70;99.90
31207;DHT22;17834;52.992;8.856;2023-09-19T23:37:08;17.60;99.90
31207;DHT22;17834;52.992;8.856;2023-09-19T23:39:34;17.60;99.90
31207;DHT22;17834;52.992;8.856;2023-09-19T23:42:02;17.60;99.90
31207;DHT22;17834;52.992;8.856;2023-09-19T23:44:27;17.60;99.90
31207;DHT22;17834;52.992;8.856;2023-09-19T23:46:54;17.60;99.90
31207;DHT22;17834;52.992;8.856;2023-09-19T23:49:24;17.60;99.90
31207;DHT22;17834;52.992;8.856;2023-09-19T23:51:49;17.50;99.90
31207;DHT22;17834;52.992;8.856;2023-09-19T23:54:16;17.50;99.90
31207;DHT22;17834;52.992;8.856;2023-09-19T23:56:52;17.50;99.90
31207;DHT22;17834;52.992;8.856;2023-09-19T23:59:18;17.50;99.90
